logo
Search for airport 
image banner adimage banner adimage banner ad
image banner ad

OM222 - Telal Resort Heliport

Located in Sweihan, United Arab Emirates

ICAO - , IATA -

Data provided by Airmate  

General information

Coordinates: N24°12'25" E55°17'14"
Elevation is 505 feet MSL.
Magnetic variation is 2° East
View others Airports in Abu Dhabi Emirate

Operational data

Special qualification required
Current time UTC:
Current local time:
Weather at : OMAL - Al Ain / International ( 33 km )
METAR: OMAL 200800Z 30004KT 250V030 CAVOK 31/04 Q1010 NOSIG
TAF: TAF OMAL 200500Z 2006/2112 30007KT 8000 NSC BECMG 2018/2020 03005KT
View NOTAMs / SUP AIP / TFR affecting this airport [VIEW]
Communications frequencies: [VIEW]

Runways:

Airport contact information

Address: Sweihan United Arab Emirates

Satellite view of OM222